createdAt,value
2022-08-07T00:02:35.436Z,92223.59
2022-08-07T00:04:46.197Z,92234.06
2022-08-07T00:07:50.637Z,92227.06
2022-08-07T00:11:02.860Z,92225.16
2022-08-07T00:14:09.428Z,92222.56
2022-08-07T00:17:16.150Z,92227.59
2022-08-07T00:20:29.687Z,92223.34
2022-08-07T00:23:40.190Z,92224.53
2022-08-07T00:26:58.753Z,92218.47
2022-08-07T00:30:06.902Z,92222.69
2022-08-07T00:33:29.972Z,92217.28
2022-08-07T00:36:35.860Z,92212.44
2022-08-07T00:39:44.937Z,92218.09
2022-08-07T00:42:50.268Z,92209.03
2022-08-07T00:45:53.426Z,92214.03
2022-08-07T00:49:03.597Z,92208.63
2022-08-07T00:52:09.936Z,92210.22
2022-08-07T00:55:13.284Z,92209.50
2022-08-07T00:58:21.947Z,92206.88
2022-08-07T01:01:25.500Z,92196.13
2022-08-07T01:04:30.277Z,92198.75
2022-08-07T01:07:36.146Z,92195.81
2022-08-07T01:10:47.565Z,92209.84
2022-08-07T01:13:57.872Z,92206.41
2022-08-07T01:17:04.213Z,92211.66
2022-08-07T01:20:16.706Z,92211.53
2022-08-07T01:23:34.726Z,92201.91
2022-08-07T01:26:43.619Z,92205.50
2022-08-07T01:29:55.962Z,92204.88
2022-08-07T01:32:59.611Z,92204.00
2022-08-07T01:36:10.217Z,92201.53
2022-08-07T01:39:20.326Z,92203.75
2022-08-07T01:42:57.669Z,92212.31
2022-08-07T01:46:03.151Z,92210.00
2022-08-07T01:49:08.247Z,92212.44
2022-08-07T01:52:15.489Z,92213.00
2022-08-07T01:55:22.173Z,92210.28
2022-08-07T01:58:34.348Z,92217.41
2022-08-07T02:02:02.856Z,92208.78
2022-08-07T02:05:48.365Z,92210.22
2022-08-07T02:09:03.624Z,92207.97
2022-08-07T02:12:19.629Z,92212.78
2022-08-07T02:15:34.693Z,92207.31
2022-08-07T02:18:47.111Z,92205.97
2022-08-07T02:21:55.831Z,92198.31
2022-08-07T02:25:01.441Z,92205.81
2022-08-07T02:28:12.023Z,92193.56
2022-08-07T02:31:29.226Z,92204.81
2022-08-07T02:34:34.882Z,92199.03
2022-08-07T02:37:43.986Z,92209.50
2022-08-07T02:40:51.507Z,92201.41
2022-08-07T02:44:01.229Z,92207.00
2022-08-07T02:47:06.155Z,92198.25
2022-08-07T02:50:15.873Z,92196.59
2022-08-07T02:53:38.604Z,92189.94
2022-08-07T02:56:48.194Z,92192.00
2022-08-07T02:59:54.863Z,92192.16
2022-08-07T03:03:13.757Z,92183.97
2022-08-07T03:06:34.736Z,92179.53
2022-08-07T03:09:42.287Z,92185.06
2022-08-07T03:12:47.722Z,92187.56
2022-08-07T03:15:56.607Z,92184.63
2022-08-07T03:19:09.732Z,92184.66
2022-08-07T03:22:19.199Z,92192.06
2022-08-07T03:25:32.469Z,92181.06
2022-08-07T03:28:47.793Z,92179.72
2022-08-07T03:31:55.866Z,92175.19
2022-08-07T03:35:17.617Z,92169.81
2022-08-07T03:38:29.463Z,92176.63
2022-08-07T03:41:47.751Z,92173.09
2022-08-07T03:44:58.035Z,92182.16
2022-08-07T03:48:03.965Z,92171.88
2022-08-07T03:51:16.869Z,92175.25
2022-08-07T03:54:36.323Z,92172.09
2022-08-07T03:58:32.482Z,92173.22
2022-08-07T04:01:16.626Z,92157.59
2022-08-07T04:04:23.664Z,92177.66
2022-08-07T04:07:42.843Z,92167.88
2022-08-07T04:12:15.554Z,92160.44
2022-08-07T04:14:38.401Z,92160.97
2022-08-07T04:18:31.075Z,92168.09
2022-08-07T04:21:22.878Z,92170.47
2022-08-07T04:24:33.648Z,92160.09
2022-08-07T04:27:44.169Z,92168.13
2022-08-07T04:30:56.766Z,92174.13
2022-08-07T04:34:16.467Z,92169.88
2022-08-07T04:37:21.883Z,92163.44
2022-08-07T04:40:32.396Z,92159.94
2022-08-07T04:44:13.171Z,92162.56
2022-08-07T04:47:23.680Z,92177.69
2022-08-07T04:51:04.872Z,92180.03
2022-08-07T04:54:30.223Z,92174.50
2022-08-07T04:58:24.303Z,92170.91
2022-08-07T05:01:42.201Z,92164.34
2022-08-07T05:05:11.558Z,92152.84
2022-08-07T05:08:59.146Z,92150.00
2022-08-07T05:12:11.418Z,92143.88
2022-08-07T05:15:36.647Z,92143.34
2022-08-07T05:18:53.638Z,92149.78
2022-08-07T05:22:01.975Z,92140.88
2022-08-07T05:25:25.797Z,92139.44
2022-08-07T05:28:40.559Z,92134.34
2022-08-07T05:31:52.736Z,92154.28
2022-08-07T05:35:03.756Z,92136.78
2022-08-07T05:38:09.720Z,92128.25
2022-08-07T05:41:16.856Z,92136.44
2022-08-07T05:44:29.367Z,92132.53
2022-08-07T05:47:38.588Z,92133.81
2022-08-07T05:51:02.235Z,92129.88
2022-08-07T05:54:31.493Z,92124.72
2022-08-07T05:57:34.554Z,92129.78
2022-08-07T06:00:41.984Z,92117.25
2022-08-07T06:03:58.810Z,92123.84
2022-08-07T06:07:12.146Z,92113.44
2022-08-07T06:10:30.225Z,92108.56
2022-08-07T06:14:13.337Z,92112.81
2022-08-07T06:16:57.911Z,92113.09
2022-08-07T06:20:12.566Z,92108.53
2022-08-07T06:24:37.148Z,92103.63
2022-08-07T06:26:53.312Z,92105.06
2022-08-07T06:29:57.607Z,92108.38
2022-08-07T06:33:02.153Z,92110.28
2022-08-07T06:36:13.958Z,92104.16
2022-08-07T06:40:13.545Z,92105.41
2022-08-07T06:42:53.543Z,92117.69
2022-08-07T06:46:14.823Z,92112.31
2022-08-07T06:49:24.238Z,92110.28
2022-08-07T06:52:38.071Z,92112.66
2022-08-07T06:55:52.659Z,92111.19
2022-08-07T07:00:12.466Z,92123.75
2022-08-07T07:02:49.253Z,92120.44
2022-08-07T07:06:02.462Z,92122.91
2022-08-07T07:09:31.745Z,92117.94
2022-08-07T07:12:48.655Z,92116.41
2022-08-07T07:16:01.818Z,92125.81
2022-08-07T07:19:54.812Z,92102.78
2022-08-07T07:22:36.560Z,92111.72
2022-08-07T07:26:32.404Z,92133.19
2022-08-07T07:29:39.277Z,92121.47
2022-08-07T07:32:41.028Z,92121.00
2022-08-07T07:36:04.450Z,92127.78
2022-08-07T07:39:11.102Z,92124.16
2022-08-07T07:42:17.531Z,92127.47
2022-08-07T07:46:38.023Z,92132.97
2022-08-07T07:48:59.890Z,92123.06
2022-08-07T07:52:13.461Z,92133.44
2022-08-07T07:55:21.148Z,92133.75
2022-08-07T07:58:30.074Z,92133.06
2022-08-07T08:02:02.214Z,92140.63
2022-08-07T08:04:57.955Z,92129.03
2022-08-07T08:08:02.647Z,92140.00
2022-08-07T08:11:09.325Z,92129.94
2022-08-07T08:14:21.412Z,92133.25
2022-08-07T08:17:57.803Z,92134.38
2022-08-07T08:20:54.279Z,92129.97
2022-08-07T08:24:44.734Z,92131.56
2022-08-07T08:27:56.396Z,92136.28
2022-08-07T08:31:06.006Z,92150.34
2022-08-07T08:34:12.441Z,92141.81
2022-08-07T08:38:01.657Z,92139.94
2022-08-07T08:40:57.129Z,92140.31
2022-08-07T08:44:29.651Z,92151.72
2022-08-07T08:47:52.733Z,92147.13
2022-08-07T08:51:14.765Z,92149.66
2022-08-07T08:54:39.625Z,92151.84
2022-08-07T08:58:04.391Z,92150.00
2022-08-07T09:01:46.598Z,92155.16
2022-08-07T09:04:55.397Z,92147.16
2022-08-07T09:08:17.791Z,92144.22
2022-08-07T09:12:20.283Z,92154.59
2022-08-07T09:16:20.638Z,92160.84
2022-08-07T09:19:50.650Z,92160.22
2022-08-07T09:24:30.792Z,92164.94
2022-08-07T09:26:53.953Z,92174.22
2022-08-07T09:30:12.741Z,92161.81
2022-08-07T09:33:56.817Z,92163.28
2022-08-07T09:37:47.877Z,92164.66
2022-08-07T09:41:36.224Z,92162.56
2022-08-07T09:47:27.625Z,92154.09
2022-08-07T09:49:59.553Z,92158.56
2022-08-07T09:52:41.761Z,92161.25
2022-08-07T09:56:04.011Z,92152.09
2022-08-07T09:59:21.673Z,92161.59
2022-08-07T10:02:55.111Z,92157.88
2022-08-07T10:06:17.695Z,92159.78
2022-08-07T10:10:00.793Z,92157.69
2022-08-07T10:14:00.646Z,92151.50
2022-08-07T10:18:02.533Z,92154.63
2022-08-07T10:21:02.755Z,92154.88
2022-08-07T10:24:39.592Z,92158.28
2022-08-07T10:28:13.246Z,92158.44
2022-08-07T10:31:51.214Z,92145.06
2022-08-07T10:35:25.845Z,92150.38
2022-08-07T10:38:42.083Z,92136.34
2022-08-07T10:42:36.839Z,92138.22
2022-08-07T10:45:58.259Z,92143.38
2022-08-07T10:49:16.741Z,92145.81
2022-08-07T10:52:42.736Z,92143.28
2022-08-07T10:56:05.858Z,92154.63
2022-08-07T10:59:25.113Z,92161.31
2022-08-07T11:02:38.663Z,92166.09
2022-08-07T11:05:56.623Z,92160.31
2022-08-07T11:09:11.060Z,92157.19
2022-08-07T11:12:32.339Z,92164.72
2022-08-07T11:15:41.502Z,92171.88
2022-08-07T11:19:02.106Z,92169.31
2022-08-07T11:22:26.572Z,92173.25
2022-08-07T11:25:43.867Z,92175.28
2022-08-07T11:29:41.726Z,92179.31
2022-08-07T11:32:59.312Z,92174.88
2022-08-07T11:36:25.474Z,92180.00
2022-08-07T11:39:59.757Z,92184.25
2022-08-07T11:43:41.486Z,92179.25
2022-08-07T11:46:59.677Z,92180.38
2022-08-07T11:50:33.574Z,92180.69
2022-08-07T11:54:17.223Z,92187.81
2022-08-07T11:58:00.166Z,92185.06
2022-08-07T12:01:20.172Z,92190.19
2022-08-07T12:04:34.262Z,92188.78
2022-08-07T12:08:04.073Z,92203.75
2022-08-07T12:11:32.206Z,92199.63
2022-08-07T12:14:55.263Z,92206.72
2022-08-07T12:18:22.349Z,92196.50
2022-08-07T12:22:37.637Z,92204.69
2022-08-07T12:26:03.131Z,92205.53
2022-08-07T12:29:37.847Z,92211.00
2022-08-07T12:33:00.482Z,92204.63
2022-08-07T12:36:05.654Z,92206.78
2022-08-07T12:39:43.663Z,92209.00
2022-08-07T12:42:40.247Z,92206.63
2022-08-07T12:46:26.200Z,92212.34
2022-08-07T12:50:04.988Z,92227.38
2022-08-07T12:54:36.376Z,92224.38
2022-08-07T12:57:09.485Z,92218.19
2022-08-07T13:00:20.848Z,92221.22
2022-08-07T13:04:04.864Z,92221.50
2022-08-07T13:08:12.681Z,92223.16
2022-08-07T13:11:10.380Z,92227.47
2022-08-07T13:14:29.214Z,92229.03
2022-08-07T13:17:59.342Z,92230.59
2022-08-07T13:21:10.975Z,92234.88
2022-08-07T13:24:25.605Z,92235.09
2022-08-07T13:28:05.917Z,92238.34
2022-08-07T13:31:06.643Z,92240.47
2022-08-07T13:34:33.726Z,92247.31
2022-08-07T13:38:01.025Z,92244.88
2022-08-07T13:41:13.194Z,92246.41
2022-08-07T13:44:25.823Z,92242.56
2022-08-07T13:48:05.414Z,92240.91
2022-08-07T13:51:01.346Z,92234.53
2022-08-07T13:54:16.426Z,92249.94
2022-08-07T13:57:38.102Z,92240.28
2022-08-07T14:00:54.316Z,92233.94
2022-08-07T14:04:07.634Z,92239.53
2022-08-07T14:07:12.664Z,92237.78
2022-08-07T14:10:24.811Z,92234.56
2022-08-07T14:13:33.209Z,92234.75
2022-08-07T14:16:44.935Z,92244.88
2022-08-07T14:20:40.088Z,92244.38
2022-08-07T14:24:00.654Z,92247.22
2022-08-07T14:28:09.853Z,92253.31
2022-08-07T14:30:33.042Z,92261.97
2022-08-07T14:33:45.017Z,92263.44
2022-08-07T14:36:56.038Z,92261.34
2022-08-07T14:40:15.849Z,92268.53
2022-08-07T14:43:58.187Z,92263.72
2022-08-07T14:50:19.733Z,92269.59
2022-08-07T14:53:49.987Z,92272.38
2022-08-07T14:56:53.085Z,92266.00
2022-08-07T15:00:05.154Z,92272.91
2022-08-07T15:03:16.503Z,92269.13
2022-08-07T15:06:28.305Z,92275.31
2022-08-07T15:09:59.210Z,92281.56
2022-08-07T15:12:58.740Z,92284.28
2022-08-07T15:16:11.203Z,92276.13
2022-08-07T15:19:18.632Z,92269.19
2022-08-07T15:22:33.325Z,92272.13
2022-08-07T15:25:40.778Z,92265.78
2022-08-07T15:28:56.658Z,92277.22
2022-08-07T15:32:04.899Z,92283.34
2022-08-07T15:36:00.450Z,92289.56
2022-08-07T15:38:59.633Z,92292.28
2022-08-07T15:45:58.332Z,92292.75
2022-08-07T15:52:30.800Z,92290.97
2022-08-07T15:56:02.254Z,92290.41
2022-08-07T15:59:02.141Z,92292.31
2022-08-07T16:02:08.532Z,92293.13
2022-08-07T16:05:18.628Z,92287.91
2022-08-07T16:08:32.327Z,92295.91
2022-08-07T16:12:03.829Z,92298.53
2022-08-07T16:15:55.681Z,92292.88
2022-08-07T16:18:55.495Z,92299.66
2022-08-07T16:22:33.770Z,92297.13
2022-08-07T16:26:09.075Z,92292.00
2022-08-07T16:30:29.409Z,92292.88
2022-08-07T16:34:02.072Z,92289.75
2022-08-07T16:37:02.875Z,92286.47
2022-08-07T16:40:56.860Z,92285.38
2022-08-07T16:44:53.650Z,92286.31
2022-08-07T16:48:09.675Z,92287.38
2022-08-07T16:51:57.611Z,92290.44
2022-08-07T16:55:08.386Z,92296.22
2022-08-07T16:58:54.389Z,92294.50
2022-08-07T17:02:14.323Z,92282.19
2022-08-07T17:06:02.310Z,92290.84
2022-08-07T17:10:05.421Z,92289.53
2022-08-07T17:13:20.711Z,92290.09
2022-08-07T17:16:40.174Z,92281.47
2022-08-07T17:20:02.966Z,92280.13
2022-08-07T17:23:31.919Z,92286.75
2022-08-07T17:26:51.357Z,92287.41
2022-08-07T17:30:14.915Z,92290.09
2022-08-07T17:34:09.924Z,92282.97
2022-08-07T17:38:09.365Z,92285.63
2022-08-07T17:42:03.009Z,92290.28
2022-08-07T17:44:49.820Z,92290.50
2022-08-07T17:48:30.737Z,92285.44
2022-08-07T17:51:59.788Z,92286.78
2022-08-07T17:55:16.624Z,92285.63
2022-08-07T17:58:46.201Z,92292.28
2022-08-07T18:02:11.363Z,92292.94
2022-08-07T18:06:03.341Z,92294.31
2022-08-07T18:09:06.342Z,92292.38
2022-08-07T18:12:30.351Z,92292.47
2022-08-07T18:15:55.487Z,92289.34
2022-08-07T18:21:06.942Z,92291.34
2022-08-07T18:22:53.614Z,92288.06
2022-08-07T18:26:15.100Z,92282.34
2022-08-07T18:30:06.795Z,92290.44
2022-08-07T18:33:25.721Z,92293.31
2022-08-07T18:36:33.878Z,92299.38
2022-08-07T18:40:06.406Z,92298.13
2022-08-07T18:43:15.956Z,92291.69
2022-08-07T18:46:34.728Z,92299.88
2022-08-07T18:50:39.456Z,92292.81
2022-08-07T18:53:54.177Z,92294.16
2022-08-07T18:57:30.592Z,92294.25
2022-08-07T19:00:39.425Z,92294.16
2022-08-07T19:04:00.364Z,92287.56
2022-08-07T19:07:34.915Z,92294.75
2022-08-07T19:10:52.322Z,92294.16
2022-08-07T19:14:19.772Z,92294.28
2022-08-07T19:18:00.864Z,92290.50
2022-08-07T19:21:44.245Z,92300.69
2022-08-07T19:24:48.097Z,92298.97
2022-08-07T19:28:58.697Z,92298.34
2022-08-07T19:32:03.485Z,92289.84
2022-08-07T19:35:14.296Z,92298.34
2022-08-07T19:38:20.585Z,92298.38
2022-08-07T19:41:44.489Z,92302.34
2022-08-07T19:44:49.066Z,92303.03
2022-08-07T19:47:56.137Z,92293.94
2022-08-07T19:51:20.434Z,92292.63
2022-08-07T19:54:31.863Z,92300.53
2022-08-07T19:58:00.653Z,92301.94
2022-08-07T20:01:20.309Z,92300.75
2022-08-07T20:04:37.325Z,92296.88
2022-08-07T20:07:47.691Z,92287.13
2022-08-07T20:11:03.608Z,92285.19
2022-08-07T20:14:20.607Z,92287.94
2022-08-07T20:17:26.550Z,92297.22
2022-08-07T20:20:31.855Z,92289.59
2022-08-07T20:23:42.927Z,92290.78
2022-08-07T20:26:54.545Z,92293.47
2022-08-07T20:30:00.879Z,92288.94
2022-08-07T20:33:24.266Z,92292.97
2022-08-07T20:36:32.903Z,92293.03
2022-08-07T20:40:02.486Z,92294.97
2022-08-07T20:43:14.416Z,92294.97
2022-08-07T20:46:43.928Z,92296.94
2022-08-07T20:50:00.041Z,92298.28
2022-08-07T20:53:06.223Z,92301.63
2022-08-07T20:56:11.148Z,92297.69
2022-08-07T21:00:04.797Z,92306.22
2022-08-07T21:03:03.437Z,92306.22
2022-08-07T21:06:21.663Z,92302.84
2022-08-07T21:09:51.924Z,92302.25
2022-08-07T21:12:59.844Z,92303.66
2022-08-07T21:16:05.847Z,92301.88
2022-08-07T21:19:13.842Z,92298.78
2022-08-07T21:22:19.310Z,92293.53
2022-08-07T21:25:45.549Z,92297.97
2022-08-07T21:29:30.619Z,92297.09
2022-08-07T21:32:58.599Z,92304.31
2022-08-07T21:36:31.451Z,92304.31
2022-08-07T21:39:46.152Z,92304.31
2022-08-07T21:43:10.795Z,92306.88
2022-08-07T21:46:42.431Z,92306.81
2022-08-07T21:50:03.522Z,92306.22
2022-08-07T21:53:21.319Z,92314.00
2022-08-07T21:56:37.687Z,92313.81
2022-08-07T22:00:22.434Z,92322.13
2022-08-07T22:03:38.429Z,92316.66
2022-08-07T22:07:02.423Z,92318.00
2022-08-07T22:10:07.784Z,92323.41
2022-08-07T22:13:14.995Z,92319.63
2022-08-07T22:16:47.837Z,92319.97
2022-08-07T22:20:10.731Z,92319.28
2022-08-07T22:23:48.450Z,92312.59
2022-08-07T22:26:59.823Z,92309.69
2022-08-07T22:30:20.389Z,92316.63
2022-08-07T22:33:53.073Z,92327.19
2022-08-07T22:37:09.311Z,92317.69
2022-08-07T22:40:17.919Z,92323.41
2022-08-07T22:43:56.013Z,92324.38
2022-08-07T22:47:06.318Z,92328.16
2022-08-07T22:50:20.765Z,92331.72
2022-08-07T22:54:06.776Z,92329.38
2022-08-07T22:57:30.263Z,92324.72
2022-08-07T23:00:44.456Z,92331.31
2022-08-07T23:04:06.928Z,92334.00
2022-08-07T23:07:41.713Z,92335.47
2022-08-07T23:11:34.993Z,92329.94
2022-08-07T23:16:04.377Z,92326.34
2022-08-07T23:19:14.043Z,92324.09
2022-08-07T23:22:40.832Z,92325.19
2022-08-07T23:26:03.100Z,92329.00
2022-08-07T23:29:43.745Z,92309.38
2022-08-07T23:34:36.192Z,92322.63
2022-08-07T23:37:20.396Z,92322.03
2022-08-07T23:40:41.233Z,92309.78
2022-08-07T23:43:57.089Z,92313.22
2022-08-07T23:47:23.224Z,92311.66
2022-08-07T23:51:12.267Z,92312.41
2022-08-07T23:54:52.113Z,92315.47
2022-08-07T23:58:18.812Z,92313.50
